createdAt,value
2019-05-23T00:00:46.273Z,21.10
2019-05-23T00:01:46.258Z,21.50
2019-05-23T00:02:46.275Z,20.40
2019-05-23T00:03:46.230Z,21.00
2019-05-23T00:04:46.229Z,20.50
2019-05-23T00:05:46.208Z,20.40
2019-05-23T00:06:46.202Z,20.90
2019-05-23T00:07:46.236Z,20.70
2019-05-23T00:08:46.201Z,20.50
2019-05-23T00:09:46.173Z,20.80
2019-05-23T00:10:46.179Z,21.30
2019-05-23T00:11:46.141Z,21.00
2019-05-23T00:12:46.128Z,20.20
2019-05-23T00:13:46.126Z,20.70
2019-05-23T00:14:46.138Z,21.00
2019-05-23T00:15:46.092Z,21.20
2019-05-23T00:16:46.082Z,21.40
2019-05-23T00:17:46.078Z,22.30
2019-05-23T00:18:46.073Z,20.50
2019-05-23T00:19:46.093Z,20.20
2019-05-23T00:20:46.064Z,21.10
2019-05-23T00:21:46.032Z,22.80
2019-05-23T00:22:46.016Z,22.10
2019-05-23T00:23:46.023Z,22.20
2019-05-23T00:24:46.010Z,20.70
2019-05-23T00:25:45.982Z,21.80
2019-05-23T00:26:45.987Z,21.90
2019-05-23T00:27:45.972Z,22.20
2019-05-23T00:28:45.947Z,22.90
2019-05-23T00:29:45.941Z,23.60
2019-05-23T00:30:45.924Z,22.00
2019-05-23T00:31:45.954Z,21.20
2019-05-23T00:32:45.927Z,22.30
2019-05-23T00:33:45.901Z,22.00
2019-05-23T00:34:45.888Z,22.40
2019-05-23T00:35:45.874Z,21.70
2019-05-23T00:36:45.864Z,23.00
2019-05-23T00:37:45.858Z,22.30
2019-05-23T00:38:45.854Z,21.80
2019-05-23T00:39:45.825Z,22.00
2019-05-23T00:40:45.840Z,22.20
2019-05-23T00:41:45.816Z,22.90
2019-05-23T00:42:45.816Z,23.30
2019-05-23T00:43:45.782Z,21.30
2019-05-23T00:44:45.803Z,21.00
2019-05-23T00:45:45.784Z,20.90
2019-05-23T00:46:45.759Z,21.40
2019-05-23T00:47:45.745Z,20.90
2019-05-23T00:48:45.727Z,20.50
2019-05-23T00:49:45.720Z,21.10
2019-05-23T00:50:45.740Z,21.40
2019-05-23T00:51:45.719Z,20.70
2019-05-23T00:52:45.688Z,20.80
2019-05-23T00:53:45.687Z,20.40
2019-05-23T00:54:45.672Z,20.30
2019-05-23T00:55:45.653Z,20.20
2019-05-23T00:56:45.669Z,21.10
2019-05-23T00:57:45.647Z,20.70
2019-05-23T00:58:45.627Z,21.40
2019-05-23T00:59:45.629Z,20.80
2019-05-23T01:00:45.605Z,21.30
2019-05-23T01:01:45.598Z,21.40
2019-05-23T01:02:45.598Z,20.60
2019-05-23T01:03:45.578Z,21.00
2019-05-23T01:04:45.579Z,20.50
2019-05-23T01:05:45.576Z,20.10
2019-05-23T01:06:45.545Z,21.80
2019-05-23T01:07:45.531Z,21.90
2019-05-23T01:08:45.534Z,21.10
2019-05-23T01:09:45.507Z,21.10
2019-05-23T01:10:45.507Z,22.10
2019-05-23T01:11:45.519Z,20.90
2019-05-23T01:12:45.467Z,21.20
2019-05-23T01:13:45.461Z,21.10
2019-05-23T01:14:45.484Z,21.80
2019-05-23T01:15:45.440Z,20.70
2019-05-23T01:16:45.440Z,21.10
2019-05-23T01:17:45.434Z,22.10
2019-05-23T01:18:45.407Z,21.90
2019-05-23T01:19:45.405Z,21.90
2019-05-23T01:20:45.419Z,21.30
2019-05-23T01:21:45.414Z,22.70
2019-05-23T01:22:45.366Z,21.60
2019-05-23T01:23:45.387Z,21.80
2019-05-23T01:24:45.348Z,22.10
2019-05-23T01:25:45.335Z,21.90
2019-05-23T01:26:45.350Z,21.40
2019-05-23T01:27:45.329Z,22.00
2019-05-23T01:28:45.360Z,22.60
2019-05-23T01:29:49.613Z,22.80
2019-05-23T01:30:46.283Z,21.90
2019-05-23T01:31:45.268Z,22.70
2019-05-23T01:32:45.295Z,22.10
2019-05-23T01:33:45.274Z,24.30
2019-05-23T01:34:45.243Z,21.40
2019-05-23T01:35:45.238Z,22.20
2019-05-23T01:36:45.238Z,22.30
2019-05-23T01:37:45.210Z,22.50
2019-05-23T01:38:45.225Z,21.60
2019-05-23T01:39:45.190Z,20.50
2019-05-23T01:40:45.173Z,23.20
2019-05-23T01:41:45.170Z,22.00
2019-05-23T01:42:45.162Z,22.00
2019-05-23T01:43:45.143Z,22.50
2019-05-23T01:44:45.159Z,22.60
2019-05-23T01:45:45.138Z,22.20
2019-05-23T01:46:45.124Z,21.20
2019-05-23T01:47:45.105Z,22.30
2019-05-23T01:48:45.091Z,22.50
2019-05-23T01:49:45.084Z,22.10
2019-05-23T01:50:45.098Z,22.10
2019-05-23T01:51:45.068Z,22.10
2019-05-23T01:52:45.050Z,21.60
2019-05-23T01:53:45.077Z,21.90
2019-05-23T01:54:45.033Z,21.80
2019-05-23T01:55:45.035Z,22.10
2019-05-23T01:56:45.032Z,21.40
2019-05-23T01:57:45.007Z,21.50
2019-05-23T01:58:44.982Z,21.70
2019-05-23T01:59:44.975Z,22.80
2019-05-23T02:00:44.967Z,22.20
2019-05-23T02:01:44.975Z,21.80
2019-05-23T02:02:44.963Z,21.00
2019-05-23T02:03:44.932Z,22.40
2019-05-23T02:04:44.940Z,21.90
2019-05-23T02:05:44.944Z,23.10
2019-05-23T02:06:44.911Z,23.70
2019-05-23T02:07:44.905Z,23.40
2019-05-23T02:08:44.897Z,23.70
2019-05-23T02:09:44.906Z,23.00
2019-05-23T02:10:44.874Z,21.80
2019-05-23T02:11:44.850Z,22.70
2019-05-23T02:12:44.842Z,23.00
2019-05-23T02:13:44.861Z,23.30
2019-05-23T02:14:44.858Z,23.40
2019-05-23T02:15:44.812Z,22.90
2019-05-23T02:16:44.800Z,24.40
2019-05-23T02:17:44.806Z,23.70
2019-05-23T02:18:44.791Z,22.90
2019-05-23T02:19:44.797Z,24.00
2019-05-23T02:20:44.837Z,24.80
2019-05-23T02:21:44.747Z,24.20
2019-05-23T02:22:44.738Z,24.10
2019-05-23T02:23:44.750Z,24.10
2019-05-23T02:24:44.725Z,25.10
2019-05-23T02:25:44.724Z,24.90
2019-05-23T02:26:44.736Z,24.10
2019-05-23T02:27:44.695Z,25.10
2019-05-23T02:28:44.694Z,24.90
2019-05-23T02:29:44.671Z,26.00
2019-05-23T02:30:44.658Z,25.50
2019-05-23T02:31:44.665Z,24.80
2019-05-23T02:32:44.669Z,25.20
2019-05-23T02:33:44.633Z,24.70
2019-05-23T02:34:44.620Z,24.50
2019-05-23T02:35:44.685Z,24.50
2019-05-23T02:36:44.594Z,25.00
2019-05-23T02:37:44.585Z,25.00
2019-05-23T02:38:44.590Z,24.60
2019-05-23T02:39:44.569Z,25.70
2019-05-23T02:40:44.566Z,26.00
2019-05-23T02:41:44.551Z,24.90
2019-05-23T02:42:44.535Z,26.40
2019-05-23T02:43:44.523Z,25.30
2019-05-23T02:44:44.564Z,24.90
2019-05-23T02:45:44.502Z,26.00
2019-05-23T02:46:44.523Z,24.30
2019-05-23T02:47:44.484Z,23.90
2019-05-23T02:48:44.473Z,24.60
2019-05-23T02:49:44.484Z,24.40
2019-05-23T02:50:44.477Z,24.80
2019-05-23T02:51:44.435Z,25.80
2019-05-23T02:52:44.429Z,24.90
2019-05-23T02:53:44.418Z,25.50
2019-05-23T02:54:44.461Z,24.40
2019-05-23T02:55:44.511Z,24.50
2019-05-23T02:56:44.412Z,23.90
2019-05-23T02:57:44.376Z,24.50
2019-05-23T02:58:44.381Z,25.00
2019-05-23T02:59:44.363Z,24.60
2019-05-23T03:00:54.356Z,24.80
2019-05-23T03:01:45.364Z,24.80
2019-05-23T03:02:44.322Z,23.70
2019-05-23T03:03:44.323Z,24.60
2019-05-23T03:04:44.323Z,24.20
2019-05-23T03:05:44.297Z,24.20
2019-05-23T03:06:44.347Z,24.70
2019-05-23T03:07:44.309Z,23.80
2019-05-23T03:08:44.287Z,23.60
2019-05-23T03:09:44.253Z,23.40
2019-05-23T03:10:44.242Z,23.60
2019-05-23T03:11:44.224Z,24.50
2019-05-23T03:12:44.217Z,24.00
2019-05-23T03:13:44.250Z,24.20
2019-05-23T03:14:44.201Z,24.10
2019-05-23T03:15:44.191Z,24.40
2019-05-23T03:16:44.179Z,25.20
2019-05-23T03:17:44.175Z,24.30
2019-05-23T03:18:44.177Z,24.40
2019-05-23T03:19:44.156Z,25.80
2019-05-23T03:20:44.132Z,26.40
2019-05-23T03:21:44.128Z,26.10
2019-05-23T03:22:44.149Z,25.10
2019-05-23T03:23:44.117Z,26.00
2019-05-23T03:24:44.105Z,24.00
2019-05-23T03:25:44.136Z,24.30
2019-05-23T03:26:44.077Z,24.50
2019-05-23T03:27:44.060Z,23.90
2019-05-23T03:28:44.049Z,24.60
2019-05-23T03:29:44.044Z,25.50
2019-05-23T03:30:44.026Z,25.60
2019-05-23T03:31:44.056Z,26.60
2019-05-23T03:32:44.073Z,26.60
2019-05-23T03:33:44.073Z,26.50
2019-05-23T03:34:43.985Z,26.60
2019-05-23T03:35:43.975Z,27.40
2019-05-23T03:36:43.979Z,26.90
2019-05-23T03:37:43.976Z,27.10
2019-05-23T03:38:43.940Z,27.40
2019-05-23T03:39:43.935Z,27.10
2019-05-23T03:40:43.937Z,27.80
2019-05-23T03:41:43.947Z,28.00
2019-05-23T03:42:43.913Z,27.80
2019-05-23T03:43:43.905Z,28.20
2019-05-23T03:44:43.882Z,27.60
2019-05-23T03:45:43.890Z,28.30
2019-05-23T03:46:43.871Z,27.60
2019-05-23T03:47:43.847Z,27.80
2019-05-23T03:48:43.848Z,29.10
2019-05-23T03:49:43.866Z,28.10
2019-05-23T03:50:43.885Z,28.20
2019-05-23T03:51:43.821Z,28.10
2019-05-23T03:52:43.797Z,28.10
2019-05-23T03:53:43.804Z,27.30
2019-05-23T03:54:43.797Z,28.30
2019-05-23T03:55:43.789Z,28.20
2019-05-23T03:56:43.796Z,27.10
2019-05-23T03:57:43.742Z,26.40
2019-05-23T03:58:43.745Z,27.80
2019-05-23T03:59:43.729Z,27.20
2019-05-23T04:00:43.719Z,27.50
2019-05-23T04:01:48.472Z,26.90
2019-05-23T04:02:44.692Z,28.00
2019-05-23T04:03:43.685Z,27.50
2019-05-23T04:04:43.689Z,27.00
2019-05-23T04:05:43.657Z,27.30
2019-05-23T04:06:43.656Z,26.90
2019-05-23T04:07:43.669Z,27.60
2019-05-23T04:08:43.660Z,26.60
2019-05-23T04:09:43.633Z,26.90
2019-05-23T04:10:43.614Z,27.60
2019-05-23T04:11:43.594Z,27.60
2019-05-23T04:12:43.592Z,26.50
2019-05-23T04:13:43.603Z,27.60
2019-05-23T04:14:43.576Z,28.40
2019-05-23T04:15:43.567Z,27.30
2019-05-23T04:16:43.569Z,28.30
2019-05-23T04:17:43.531Z,27.30
2019-05-23T04:18:43.534Z,27.80
2019-05-23T04:19:43.533Z,30.10
2019-05-23T04:20:43.504Z,27.70
2019-05-23T04:21:43.491Z,27.50
2019-05-23T04:22:43.497Z,27.70
2019-05-23T04:23:43.476Z,27.40
2019-05-23T04:24:43.472Z,26.40
2019-05-23T04:25:43.481Z,25.50
2019-05-23T04:26:43.429Z,26.70
2019-05-23T04:27:43.420Z,26.60
2019-05-23T04:28:43.407Z,27.90
2019-05-23T04:29:43.407Z,26.60
2019-05-23T04:30:43.391Z,26.70
2019-05-23T04:31:43.424Z,27.20
2019-05-23T04:32:43.372Z,27.40
2019-05-23T04:33:43.367Z,26.70
2019-05-23T04:34:43.344Z,27.20
2019-05-23T04:35:43.365Z,26.60
2019-05-23T04:36:43.347Z,26.90
2019-05-23T04:37:43.341Z,26.10
2019-05-23T04:38:43.304Z,26.30
2019-05-23T04:39:43.301Z,26.70
2019-05-23T04:40:43.293Z,27.20
2019-05-23T04:41:43.297Z,26.00
2019-05-23T04:42:43.285Z,25.20
2019-05-23T04:43:43.268Z,23.90
2019-05-23T04:44:44.670Z,24.80
2019-05-23T04:45:43.231Z,25.70
2019-05-23T04:46:43.230Z,24.80
2019-05-23T04:47:43.269Z,24.00
2019-05-23T04:48:43.193Z,24.40
2019-05-23T04:49:43.218Z,23.80
2019-05-23T04:50:43.169Z,24.30
2019-05-23T04:51:43.220Z,24.30
2019-05-23T04:52:43.189Z,23.30
2019-05-23T04:53:43.183Z,23.40
2019-05-23T04:54:43.134Z,23.50
2019-05-23T04:55:43.148Z,23.70
2019-05-23T04:56:43.114Z,22.40
2019-05-23T04:57:43.100Z,22.90
2019-05-23T04:58:43.079Z,23.00
2019-05-23T04:59:43.076Z,22.20
2019-05-23T05:00:43.069Z,22.20
2019-05-23T05:01:43.085Z,22.90
2019-05-23T05:02:43.035Z,21.10
2019-05-23T05:03:43.032Z,22.00
2019-05-23T05:04:43.028Z,21.60
2019-05-23T05:05:43.020Z,21.50
2019-05-23T05:06:42.998Z,22.00
2019-05-23T05:07:43.032Z,22.90
2019-05-23T05:08:42.973Z,21.10
2019-05-23T05:09:42.953Z,21.20
2019-05-23T05:10:42.938Z,20.40
2019-05-23T05:11:42.925Z,20.20
2019-05-23T05:12:42.933Z,21.10
2019-05-23T05:13:42.926Z,20.40
2019-05-23T05:14:42.899Z,20.40
2019-05-23T05:15:42.884Z,19.70
2019-05-23T05:16:42.870Z,20.70
2019-05-23T05:17:42.861Z,20.90
2019-05-23T05:18:42.874Z,20.50
2019-05-23T05:19:42.862Z,20.50
2019-05-23T05:20:42.850Z,19.80
2019-05-23T05:21:42.817Z,19.60
2019-05-23T05:22:42.883Z,20.00
2019-05-23T05:23:42.793Z,19.70
2019-05-23T05:24:42.782Z,19.80
2019-05-23T05:25:42.783Z,19.50
2019-05-23T05:26:42.766Z,19.40
2019-05-23T05:27:42.746Z,19.40
2019-05-23T05:28:42.739Z,19.50
2019-05-23T05:29:42.724Z,19.40
2019-05-23T05:30:42.798Z,19.30
2019-05-23T05:31:42.718Z,19.10
2019-05-23T05:32:45.413Z,19.40
2019-05-23T05:33:42.678Z,19.40
2019-05-23T05:34:42.673Z,19.60
2019-05-23T05:35:42.657Z,19.70
2019-05-23T05:36:42.653Z,19.10
2019-05-23T05:37:42.647Z,18.90
2019-05-23T05:38:42.621Z,19.20
2019-05-23T05:39:42.614Z,18.70
2019-05-23T05:40:42.597Z,18.50
2019-05-23T05:41:42.586Z,17.80
2019-05-23T05:42:42.585Z,19.50
2019-05-23T05:43:42.589Z,18.50
2019-05-23T05:44:42.563Z,17.90
2019-05-23T05:45:42.543Z,17.90
2019-05-23T05:46:42.533Z,17.70
2019-05-23T05:47:42.526Z,17.70
2019-05-23T05:48:42.512Z,17.60
2019-05-23T05:49:42.563Z,17.70
2019-05-23T05:50:42.507Z,16.80
2019-05-23T05:51:42.476Z,17.70
2019-05-23T05:52:42.471Z,17.40
2019-05-23T05:53:42.458Z,17.70
2019-05-23T05:54:42.443Z,17.30
2019-05-23T05:55:42.445Z,18.20
2019-05-23T05:56:42.418Z,18.00
2019-05-23T05:57:42.430Z,18.30
2019-05-23T05:58:42.401Z,17.60
2019-05-23T05:59:42.382Z,17.10
2019-05-23T06:00:42.371Z,17.00
2019-05-23T06:01:42.376Z,16.80
2019-05-23T06:02:42.353Z,17.80
2019-05-23T06:03:42.344Z,17.10
2019-05-23T06:04:42.330Z,17.30
2019-05-23T06:05:42.379Z,17.30
2019-05-23T06:06:42.318Z,17.30
2019-05-23T06:07:42.315Z,17.30
2019-05-23T06:08:42.284Z,15.90
2019-05-23T06:09:42.271Z,16.60
2019-05-23T06:10:42.275Z,16.70
2019-05-23T06:11:42.258Z,16.10
2019-05-23T06:12:42.240Z,16.50
2019-05-23T06:13:42.245Z,17.00
2019-05-23T06:14:46.294Z,16.70
2019-05-23T06:15:42.207Z,16.30
2019-05-23T06:16:42.198Z,15.90
2019-05-23T06:17:42.183Z,15.90
2019-05-23T06:18:42.174Z,15.90
2019-05-23T06:19:42.191Z,15.90
2019-05-23T06:20:42.154Z,16.10
2019-05-23T06:21:42.140Z,15.80
2019-05-23T06:22:42.141Z,15.60
2019-05-23T06:23:42.124Z,15.50
2019-05-23T06:24:49.460Z,15.60
2019-05-23T06:25:43.113Z,16.00
2019-05-23T06:26:42.088Z,15.80
2019-05-23T06:27:42.079Z,15.00
2019-05-23T06:28:42.072Z,16.00
2019-05-23T06:29:42.062Z,15.80
2019-05-23T06:30:42.061Z,15.60
2019-05-23T06:31:42.053Z,16.10
2019-05-23T06:32:42.019Z,15.70
2019-05-23T06:33:42.010Z,15.70
2019-05-23T06:34:41.999Z,16.40
2019-05-23T06:35:42.013Z,15.70
2019-05-23T06:36:41.975Z,16.30
2019-05-23T06:37:42.003Z,15.90
2019-05-23T06:38:41.954Z,16.00
2019-05-23T06:39:41.949Z,16.60
2019-05-23T06:40:41.940Z,15.50
2019-05-23T06:41:41.946Z,15.80
2019-05-23T06:42:41.911Z,15.20
2019-05-23T06:43:41.941Z,15.50
2019-05-23T06:44:41.891Z,15.20
2019-05-23T06:45:41.908Z,15.80
2019-05-23T06:46:41.864Z,15.80
2019-05-23T06:47:41.854Z,15.90
2019-05-23T06:48:45.582Z,15.80
2019-05-23T06:49:41.855Z,15.20
2019-05-23T06:50:41.826Z,15.20
2019-05-23T06:51:41.813Z,16.30
2019-05-23T06:52:41.803Z,15.70
2019-05-23T06:53:41.831Z,15.70
2019-05-23T06:54:41.782Z,15.70
2019-05-23T06:55:41.789Z,15.50
2019-05-23T06:56:41.765Z,15.30
2019-05-23T06:57:41.785Z,15.40
2019-05-23T06:58:41.739Z,15.10
2019-05-23T06:59:41.728Z,15.00
2019-05-23T07:00:41.745Z,15.40
2019-05-23T07:01:41.730Z,14.70
2019-05-23T07:02:41.707Z,15.20
2019-05-23T07:03:43.655Z,15.40
2019-05-23T07:04:41.670Z,15.30
2019-05-23T07:05:41.665Z,15.60
2019-05-23T07:06:41.653Z,16.10
2019-05-23T07:07:41.659Z,16.20
2019-05-23T07:08:41.647Z,16.00
2019-05-23T07:09:41.616Z,15.30
2019-05-23T07:10:41.622Z,15.80
2019-05-23T07:11:41.621Z,15.90
2019-05-23T07:13:02.681Z,15.50
2019-05-23T07:13:41.579Z,17.80
2019-05-23T07:14:41.571Z,16.60
2019-05-23T07:15:41.551Z,16.60
2019-05-23T07:16:41.571Z,17.60
2019-05-23T07:17:41.562Z,16.90
2019-05-23T07:18:41.547Z,16.50
2019-05-23T07:19:41.535Z,16.80
2019-05-23T07:20:41.529Z,16.30
2019-05-23T07:21:41.508Z,17.70
2019-05-23T07:22:42.069Z,17.90
2019-05-23T07:23:41.485Z,16.80
2019-05-23T07:24:56.871Z,16.60
2019-05-23T07:25:42.449Z,16.90
2019-05-23T07:26:41.460Z,17.40
2019-05-23T07:27:41.486Z,17.70
2019-05-23T07:28:41.458Z,16.60
2019-05-23T07:29:41.411Z,17.10
2019-05-23T07:30:41.488Z,16.80
2019-05-23T07:31:41.394Z,17.10
2019-05-23T07:32:41.398Z,17.00
2019-05-23T07:33:59.878Z,16.60
2019-05-23T07:34:42.351Z,15.50
2019-05-23T07:35:41.379Z,17.10
2019-05-23T07:36:41.351Z,16.80
2019-05-23T07:37:41.340Z,17.90
2019-05-23T07:38:41.309Z,17.30
2019-05-23T07:39:41.334Z,16.00
2019-05-23T07:40:41.330Z,17.00
2019-05-23T07:41:41.293Z,16.70
2019-05-23T07:42:41.311Z,16.70
2019-05-23T07:43:41.257Z,16.40
2019-05-23T07:44:48.355Z,16.90
2019-05-23T07:45:42.254Z,16.50
2019-05-23T07:46:41.224Z,17.40
2019-05-23T07:47:41.215Z,17.70
2019-05-23T07:48:41.226Z,17.50
2019-05-23T07:49:41.201Z,17.90
2019-05-23T07:50:41.206Z,17.90
2019-05-23T07:51:41.171Z,16.40
2019-05-23T07:52:41.175Z,17.20
2019-05-23T07:53:43.847Z,17.30
2019-05-23T07:54:41.177Z,16.40
2019-05-23T07:55:41.132Z,17.00
2019-05-23T07:56:41.119Z,17.40
2019-05-23T07:57:41.134Z,16.60
2019-05-23T07:58:41.143Z,16.70
2019-05-23T07:59:41.094Z,17.40
2019-05-23T08:00:41.113Z,16.90
2019-05-23T08:01:41.093Z,17.10
2019-05-23T08:02:41.104Z,17.90
2019-05-23T08:03:41.052Z,17.90
2019-05-23T08:04:41.036Z,18.00
2019-05-23T08:05:41.029Z,18.00
2019-05-23T08:06:41.038Z,17.10
2019-05-23T08:07:41.117Z,17.00
2019-05-23T08:08:41.018Z,16.90
2019-05-23T08:09:40.980Z,17.60
2019-05-23T08:10:41.023Z,17.00
2019-05-23T08:11:40.982Z,16.80
2019-05-23T08:12:40.974Z,17.30
2019-05-23T08:13:40.974Z,16.90
2019-05-23T08:14:40.942Z,17.50
2019-05-23T08:15:40.922Z,17.90
2019-05-23T08:16:40.916Z,17.60
2019-05-23T08:17:40.916Z,17.20
2019-05-23T08:18:40.913Z,17.80
2019-05-23T08:19:49.584Z,16.50
2019-05-23T08:20:41.869Z,16.80
2019-05-23T08:21:40.865Z,18.60
2019-05-23T08:22:40.864Z,18.00
2019-05-23T08:23:40.842Z,18.50
2019-05-23T08:24:40.858Z,17.50
2019-05-23T08:25:40.831Z,18.60
2019-05-23T08:26:40.846Z,17.90
2019-05-23T08:27:40.802Z,17.80
2019-05-23T08:28:56.718Z,18.50
2019-05-23T08:29:41.793Z,18.10
2019-05-23T08:30:40.794Z,18.80
2019-05-23T08:31:40.761Z,19.00
2019-05-23T08:32:40.750Z,18.10
2019-05-23T08:33:40.741Z,17.90
2019-05-23T08:34:42.826Z,17.40
2019-05-23T08:35:40.735Z,17.60
2019-05-23T08:36:40.712Z,18.70
2019-05-23T08:37:40.739Z,18.00
2019-05-23T08:38:40.699Z,18.00
2019-05-23T08:39:40.718Z,16.30
2019-05-23T08:40:40.668Z,18.10
2019-05-23T08:41:40.677Z,18.00
2019-05-23T08:42:40.653Z,17.70
2019-05-23T08:43:40.645Z,17.80
2019-05-23T08:44:40.638Z,17.80
2019-05-23T08:45:40.648Z,17.50
2019-05-23T08:46:40.611Z,17.90
2019-05-23T08:47:40.617Z,17.10
2019-05-23T08:48:40.621Z,16.80
2019-05-23T08:49:40.602Z,16.90
2019-05-23T08:50:40.570Z,16.80
2019-05-23T08:51:40.560Z,17.10
2019-05-23T08:52:40.560Z,17.50
2019-05-23T08:53:40.574Z,17.10
2019-05-23T08:54:40.538Z,17.50
2019-05-23T08:55:40.530Z,17.20
2019-05-23T08:56:40.515Z,16.70
2019-05-23T08:57:40.508Z,15.30
2019-05-23T08:58:40.502Z,16.20
2019-05-23T08:59:40.613Z,16.00
2019-05-23T09:00:40.478Z,16.70
2019-05-23T09:01:40.533Z,16.00
2019-05-23T09:02:40.460Z,15.30
2019-05-23T09:03:40.452Z,16.40
2019-05-23T09:05:01.157Z,16.20
2019-05-23T09:05:41.449Z,15.80
2019-05-23T09:06:40.422Z,15.80
2019-05-23T09:07:40.412Z,15.80
2019-05-23T09:08:40.398Z,15.90
2019-05-23T09:09:40.390Z,16.00
2019-05-23T09:10:40.383Z,15.60
2019-05-23T09:11:40.392Z,15.90
2019-05-23T09:12:40.410Z,16.30
2019-05-23T09:13:40.358Z,16.00
2019-05-23T09:14:40.342Z,16.10
2019-05-23T09:15:40.334Z,16.60
2019-05-23T09:16:40.326Z,15.90
2019-05-23T09:17:52.282Z,15.90
2019-05-23T09:18:41.301Z,16.10
2019-05-23T09:19:40.307Z,16.30
2019-05-23T09:20:40.285Z,15.70
2019-05-23T09:21:40.270Z,16.60
2019-05-23T09:22:40.263Z,16.40
2019-05-23T09:23:40.284Z,15.70
2019-05-23T09:24:40.247Z,15.20
2019-05-23T09:25:40.239Z,15.10
2019-05-23T09:26:40.223Z,14.90
2019-05-23T09:27:40.261Z,15.60
2019-05-23T09:28:40.206Z,14.40
2019-05-23T09:29:40.220Z,13.60
2019-05-23T09:30:40.188Z,13.20
2019-05-23T09:31:40.181Z,13.10
2019-05-23T09:32:40.173Z,14.10
2019-05-23T09:33:40.159Z,14.40
2019-05-23T09:34:40.151Z,14.00
2019-05-23T09:35:40.167Z,12.60
2019-05-23T09:36:40.132Z,13.70
2019-05-23T09:37:40.124Z,12.40
2019-05-23T09:38:40.110Z,13.00
2019-05-23T09:39:40.129Z,13.60
2019-05-23T09:40:40.120Z,13.70
2019-05-23T09:41:40.217Z,12.80
2019-05-23T09:42:40.118Z,12.80
2019-05-23T09:43:40.079Z,13.00
2019-05-23T09:44:40.069Z,13.20
2019-05-23T09:45:40.087Z,13.30
2019-05-23T09:46:40.037Z,13.40
2019-05-23T09:47:40.044Z,13.10
2019-05-23T09:48:40.024Z,12.10
2019-05-23T09:49:40.021Z,12.50
2019-05-23T09:50:40.001Z,11.80
2019-05-23T09:51:40.018Z,11.60
2019-05-23T09:52:39.981Z,12.00
2019-05-23T09:53:40.017Z,11.50
2019-05-23T09:54:39.967Z,11.40
2019-05-23T09:55:39.958Z,11.40
2019-05-23T09:56:39.946Z,12.80
2019-05-23T09:57:39.965Z,13.00
2019-05-23T09:58:39.926Z,12.60
2019-05-23T09:59:39.954Z,13.30
2019-05-23T10:00:39.910Z,12.50
2019-05-23T10:01:39.977Z,12.50
2019-05-23T10:02:39.895Z,12.20
2019-05-23T10:03:39.904Z,12.20
2019-05-23T10:04:39.878Z,12.30
2019-05-23T10:05:43.513Z,11.70
2019-05-23T10:06:39.856Z,11.40
2019-05-23T10:07:39.846Z,10.70
2019-05-23T10:08:39.832Z,11.10
2019-05-23T10:09:39.822Z,10.00
2019-05-23T10:10:39.815Z,10.80
2019-05-23T10:11:39.840Z,10.60
2019-05-23T10:12:39.802Z,9.40
2019-05-23T10:13:39.802Z,9.40
2019-05-23T10:14:39.774Z,10.10
2019-05-23T10:15:39.777Z,9.50
2019-05-23T10:16:39.769Z,9.10
2019-05-23T10:17:40.161Z,9.60
2019-05-23T10:18:39.744Z,10.90
2019-05-23T10:19:39.743Z,8.60
2019-05-23T10:20:39.725Z,9.30
2019-05-23T10:21:39.711Z,10.10
2019-05-23T10:22:39.705Z,9.90
2019-05-23T10:23:39.730Z,10.50
2019-05-23T10:24:39.690Z,9.70
2019-05-23T10:25:39.678Z,9.50
2019-05-23T10:26:39.674Z,9.30
2019-05-23T10:27:39.654Z,9.90
2019-05-23T10:28:39.649Z,10.20
2019-05-23T10:29:39.659Z,9.20
2019-05-23T10:30:39.631Z,9.00
2019-05-23T10:31:39.622Z,9.50
2019-05-23T10:32:39.613Z,10.20
2019-05-23T10:33:39.600Z,10.20
2019-05-23T10:34:39.617Z,9.00
2019-05-23T10:35:39.598Z,10.50
2019-05-23T10:36:39.582Z,9.00
2019-05-23T10:37:39.565Z,9.60
2019-05-23T10:38:39.561Z,9.40
2019-05-23T10:39:39.544Z,8.80
2019-05-23T10:40:39.534Z,9.50
2019-05-23T10:41:39.546Z,9.60
2019-05-23T10:42:39.514Z,9.50
2019-05-23T10:43:39.511Z,9.40
2019-05-23T10:44:39.498Z,10.20
2019-05-23T10:45:39.493Z,9.90
2019-05-23T10:46:39.492Z,9.40
2019-05-23T10:47:39.502Z,9.30
2019-05-23T10:48:39.499Z,9.00
2019-05-23T10:49:39.451Z,8.10
2019-05-23T10:50:44.648Z,8.30
2019-05-23T10:51:40.435Z,8.60
2019-05-23T10:52:39.422Z,8.40
2019-05-23T10:53:39.434Z,8.90
2019-05-23T10:54:39.400Z,8.20
2019-05-23T10:55:39.397Z,8.70
2019-05-23T10:56:39.385Z,8.70
2019-05-23T10:57:39.387Z,8.00
2019-05-23T10:58:39.372Z,7.70
2019-05-23T10:59:39.401Z,7.90
2019-05-23T11:00:39.362Z,7.70
2019-05-23T11:01:39.340Z,8.90
2019-05-23T11:02:39.329Z,9.00
2019-05-23T11:03:39.314Z,8.40
2019-05-23T11:04:39.304Z,8.40
2019-05-23T11:05:39.315Z,8.80
2019-05-23T11:06:39.286Z,8.30
2019-05-23T11:07:39.279Z,8.10
2019-05-23T11:08:39.272Z,8.20
2019-05-23T11:09:39.262Z,7.90
2019-05-23T11:10:39.255Z,8.10
2019-05-23T11:11:39.259Z,8.30
2019-05-23T11:12:39.237Z,8.50
2019-05-23T11:13:39.225Z,8.00
2019-05-23T11:14:39.211Z,8.50
2019-05-23T11:15:39.203Z,8.30
2019-05-23T11:16:39.193Z,8.60
2019-05-23T11:17:39.201Z,7.90
2019-05-23T11:18:39.181Z,7.50
2019-05-23T11:19:39.182Z,7.50
2019-05-23T11:20:39.161Z,6.90
2019-05-23T11:21:39.153Z,7.70
2019-05-23T11:22:39.138Z,7.20
2019-05-23T11:23:39.153Z,7.50
2019-05-23T11:24:39.116Z,7.60
2019-05-23T11:25:39.123Z,7.90
2019-05-23T11:26:39.106Z,7.60
2019-05-23T11:27:39.092Z,8.80
2019-05-23T11:28:39.079Z,8.50
2019-05-23T11:29:39.097Z,8.10
2019-05-23T11:30:39.056Z,8.20
2019-05-23T11:31:39.047Z,8.60
2019-05-23T11:32:39.042Z,7.60
2019-05-23T11:33:39.027Z,8.00
2019-05-23T11:34:39.016Z,7.60
2019-05-23T11:35:39.027Z,6.90
2019-05-23T11:36:39.000Z,6.70
2019-05-23T11:37:41.842Z,6.60
2019-05-23T11:38:38.977Z,7.10
2019-05-23T11:39:42.175Z,6.80
2019-05-23T11:40:39.983Z,7.00
2019-05-23T11:41:38.951Z,6.30
2019-05-23T11:42:38.938Z,6.90
2019-05-23T11:43:38.989Z,6.90
2019-05-23T11:44:38.920Z,6.50
2019-05-23T11:45:45.936Z,7.30
2019-05-23T11:46:39.910Z,6.60
2019-05-23T11:47:38.891Z,7.10
2019-05-23T11:48:38.877Z,6.00
2019-05-23T11:49:39.488Z,6.50
2019-05-23T11:50:38.860Z,6.90
2019-05-23T11:51:38.878Z,6.70
2019-05-23T11:52:38.899Z,6.80
2019-05-23T11:53:38.844Z,6.40
2019-05-23T11:54:38.819Z,7.00
2019-05-23T11:55:38.815Z,6.80
2019-05-23T11:56:38.820Z,6.10
2019-05-23T11:57:38.792Z,6.30
2019-05-23T11:58:38.801Z,7.00
2019-05-23T11:59:38.763Z,7.30
2019-05-23T12:00:38.776Z,7.10
2019-05-23T12:01:38.742Z,7.80
2019-05-23T12:02:38.734Z,7.60
2019-05-23T12:03:38.726Z,6.80
2019-05-23T12:04:38.747Z,7.10
2019-05-23T12:05:38.702Z,7.10
2019-05-23T12:06:53.687Z,6.20
2019-05-23T12:07:39.682Z,5.60
2019-05-23T12:08:38.669Z,5.80
2019-05-23T12:09:38.662Z,5.90
2019-05-23T12:10:38.663Z,5.40
2019-05-23T12:11:42.535Z,5.80
2019-05-23T12:12:38.627Z,6.10
2019-05-23T12:13:38.616Z,5.30
2019-05-23T12:14:38.606Z,5.90
2019-05-23T12:15:38.600Z,5.60
2019-05-23T12:16:38.600Z,5.90
2019-05-23T12:17:38.576Z,6.10
2019-05-23T12:18:38.569Z,5.40
2019-05-23T12:19:38.556Z,5.20
2019-05-23T12:20:38.541Z,5.30
2019-05-23T12:21:38.533Z,5.20
2019-05-23T12:22:38.597Z,5.50
2019-05-23T12:23:38.519Z,5.30
2019-05-23T12:24:38.511Z,5.80
2019-05-23T12:25:38.494Z,6.30
2019-05-23T12:26:38.486Z,6.60
2019-05-23T12:27:38.469Z,6.00
2019-05-23T12:28:38.483Z,5.40
2019-05-23T12:29:38.448Z,5.50
2019-05-23T12:30:38.444Z,5.60
2019-05-23T12:31:38.424Z,5.20
2019-05-23T12:32:38.423Z,5.90
2019-05-23T12:33:38.407Z,5.20
2019-05-23T12:34:38.413Z,5.50
2019-05-23T12:35:38.392Z,5.60
2019-05-23T12:36:38.385Z,6.10
2019-05-23T12:37:38.363Z,5.80
2019-05-23T12:38:38.362Z,5.10
2019-05-23T12:39:38.341Z,4.50
2019-05-23T12:40:38.359Z,4.90
2019-05-23T12:41:38.318Z,4.90
2019-05-23T12:42:38.305Z,4.80
2019-05-23T12:43:38.299Z,4.60
2019-05-23T12:44:38.295Z,4.90
2019-05-23T12:45:38.289Z,4.50
2019-05-23T12:46:38.285Z,4.80
2019-05-23T12:47:38.260Z,5.30
2019-05-23T12:48:38.254Z,5.70
2019-05-23T12:49:38.239Z,5.60
2019-05-23T12:50:38.296Z,5.60
2019-05-23T12:51:38.239Z,6.00
2019-05-23T12:52:38.239Z,5.90
2019-05-23T12:53:38.188Z,5.70
2019-05-23T12:54:38.181Z,4.50
2019-05-23T12:55:38.178Z,4.20
2019-05-23T12:56:38.160Z,4.60
2019-05-23T12:57:38.143Z,4.90